createdAt,value
2023-04-10T00:14:19.627Z,100
2023-04-10T00:24:21.712Z,100
2023-04-10T00:34:24.180Z,100
2023-04-10T00:44:26.176Z,100
2023-04-10T00:54:27.874Z,100
2023-04-10T01:04:30.317Z,100
2023-04-10T01:14:32.455Z,100
2023-04-10T01:24:34.614Z,100
2023-04-10T01:34:36.899Z,100
2023-04-10T01:44:39.271Z,100
2023-04-10T01:54:41.735Z,100
2023-04-10T02:04:43.465Z,100
2023-04-10T02:14:45.391Z,100
2023-04-10T02:24:47.910Z,100
2023-04-10T02:44:52.676Z,100
2023-04-10T02:54:54.746Z,100
2023-04-10T03:04:56.840Z,100
2023-04-10T03:14:59.232Z,100
2023-04-10T03:45:05.071Z,100
2023-04-10T03:55:07.496Z,100
2023-04-10T04:05:09.795Z,100
2023-04-10T04:15:11.818Z,100
2023-04-10T04:25:14.295Z,100
2023-04-10T04:45:17.888Z,100
2023-04-10T04:55:20.400Z,100
2023-04-10T05:05:22.202Z,100
2023-04-10T05:15:24.404Z,100
2023-04-10T05:25:26.685Z,100
2023-04-10T05:35:29.048Z,100
2023-04-10T05:45:31.008Z,100
2023-04-10T05:55:33.341Z,100
2023-04-10T06:05:35.930Z,100
2023-04-10T06:15:37.859Z,100
2023-04-10T06:25:39.806Z,100
2023-04-10T06:35:41.804Z,100
2023-04-10T06:45:43.407Z,100
2023-04-10T06:55:45.212Z,100
2023-04-10T07:05:47.457Z,100
2023-04-10T07:15:49.640Z,100
2023-04-10T07:35:54.053Z,100
2023-04-10T07:45:56.495Z,100
2023-04-10T07:55:58.835Z,100
2023-04-10T08:06:01.438Z,100
2023-04-10T08:16:03.999Z,100
2023-04-10T08:26:06.029Z,100
2023-04-10T08:46:11.198Z,100
2023-04-10T08:56:13.552Z,100
2023-04-10T09:06:15.970Z,100
2023-04-10T09:16:18.135Z,100
2023-04-10T09:26:20.209Z,100
2023-04-10T09:36:22.846Z,100
2023-04-10T09:46:25.351Z,100
2023-04-10T09:56:27.853Z,100
2023-04-10T10:06:29.765Z,100
2023-04-10T10:16:32.101Z,100
2023-04-10T10:36:35.682Z,100
2023-04-10T10:46:37.894Z,100
2023-04-10T10:56:40.465Z,100
2023-04-10T11:06:43.591Z,100
2023-04-10T11:26:47.189Z,100
2023-04-10T11:36:49.494Z,100
2023-04-10T11:46:51.733Z,100
2023-04-10T11:56:53.424Z,100
2023-04-10T12:06:55.804Z,100
2023-04-10T12:27:01.562Z,100
2023-04-10T12:37:03.031Z,100
2023-04-10T12:47:05.094Z,100
2023-04-10T12:57:06.880Z,100
2023-04-10T13:17:11.551Z,97
2023-04-10T13:27:13.945Z,97
2023-04-10T13:37:15.665Z,93
2023-04-10T13:47:18.031Z,92
2023-04-10T13:57:20.116Z,93
2023-04-10T14:07:22.605Z,91
2023-04-10T14:17:25.193Z,92
2023-04-10T14:27:27.601Z,92
2023-04-10T14:37:30.183Z,94
2023-04-10T14:47:32.451Z,95
2023-04-10T14:57:34.637Z,96
2023-04-10T15:37:43.556Z,100
2023-04-10T15:47:45.633Z,100
2023-04-10T16:27:54.319Z,100
2023-04-10T16:38:03.450Z,100
2023-04-10T16:48:05.789Z,100
2023-04-10T16:58:08.242Z,100
2023-04-10T17:08:10.263Z,100
2023-04-10T17:18:12.894Z,100
2023-04-10T17:28:14.606Z,100
2023-04-10T17:38:16.878Z,100
2023-04-10T17:48:18.948Z,100
2023-04-10T17:58:21.374Z,100
2023-04-10T18:38:30.128Z,100
2023-04-10T19:18:39.709Z,100
2023-04-10T19:38:43.901Z,100
2023-04-10T20:08:50.248Z,100
2023-04-10T20:18:53.036Z,100
2023-04-10T20:28:55.202Z,100
2023-04-10T20:38:56.865Z,100
2023-04-10T20:48:58.904Z,100
2023-04-10T20:59:00.483Z,100
2023-04-10T21:09:02.477Z,100
2023-04-10T21:19:04.757Z,100
2023-04-10T21:29:07.092Z,100
2023-04-10T21:49:10.505Z,100
2023-04-10T21:59:12.754Z,100
2023-04-10T22:09:15.199Z,100
2023-04-10T22:19:17.330Z,100
2023-04-10T22:29:19.345Z,100
2023-04-10T22:39:21.860Z,100
2023-04-10T22:49:23.879Z,100
2023-04-10T22:59:26.249Z,100
2023-04-10T23:09:28.797Z,100
2023-04-10T23:19:30.757Z,100
2023-04-10T23:29:32.491Z,100
2023-04-10T23:39:34.227Z,100
2023-04-10T23:49:36.520Z,100
2023-04-10T23:59:38.683Z,100
